Terminal Aerodrome Forecast
Issued by NWS Memphis, TN

Home | Current Version | Previous Version | Text Only | Print | Product List | Glossary On
Versions: 1 2 3 4 5 6 7 8 9 10 11 12 13 14 15 16 17
702
FTUS44 KMEG 281741
TAFJBR
TAF
KJBR 281741Z 2818/0118 17012KT P6SM VCSH OVC007
     FM282000 19015G24KT P6SM VCSH BKN020 OVC035
     FM282200 20016G24KT P6SM BKN035
     FM010200 20016G24KT P6SM VCTS SCT030CB BKN040 WS020/20050KT
     FM010600 21018G28KT P6SM VCTS BKN020CB OVC030 WS020/22050KT
     FM011100 22016G24KT P6SM SCT030 BKN100
     FM011400 29017G26KT P6SM BKN050=

USA.gov is the U.S. government's official web portal to all federal, state and local government web resources and services.